createdAt,value
2019-06-26T00:01:19.111Z,22.56
2019-06-26T00:03:50.345Z,22.49
2019-06-26T00:06:21.609Z,22.62
2019-06-26T00:08:52.820Z,22.46
2019-06-26T00:11:24.004Z,22.39
2019-06-26T00:13:55.226Z,22.36
2019-06-26T00:16:26.437Z,22.45
2019-06-26T00:18:57.662Z,22.22
2019-06-26T00:21:28.843Z,22.32
2019-06-26T00:24:00.002Z,22.21
2019-06-26T00:26:31.173Z,22.10
2019-06-26T00:29:02.329Z,22.10
2019-06-26T00:31:33.619Z,22.02
2019-06-26T00:34:04.891Z,22.15
2019-06-26T00:36:36.060Z,22.15
2019-06-26T00:39:07.679Z,22.03
2019-06-26T00:41:38.836Z,22.12
2019-06-26T00:44:09.984Z,22.03
2019-06-26T00:46:41.095Z,22.03
2019-06-26T00:49:12.429Z,22.10
2019-06-26T00:51:43.616Z,21.97
2019-06-26T00:54:14.921Z,21.83
2019-06-26T00:56:46.253Z,21.83
2019-06-26T00:59:17.455Z,21.89
2019-06-26T01:01:48.718Z,21.92
2019-06-26T01:04:33.506Z,21.88
2019-06-26T01:07:04.769Z,21.79
2019-06-26T01:09:35.983Z,21.85
2019-06-26T01:12:07.258Z,21.97
2019-06-26T01:14:38.607Z,22.01
2019-06-26T01:17:09.877Z,21.91
2019-06-26T01:19:41.187Z,21.91
2019-06-26T01:22:12.466Z,21.81
2019-06-26T01:24:43.722Z,21.75
2019-06-26T01:27:14.923Z,21.77
2019-06-26T01:29:46.252Z,21.65
2019-06-26T01:32:17.571Z,21.65
2019-06-26T01:34:48.786Z,21.71
2019-06-26T01:37:20.065Z,21.74
2019-06-26T01:39:51.401Z,21.74
2019-06-26T01:42:22.681Z,21.67
2019-06-26T01:44:53.896Z,21.49
2019-06-26T01:47:25.189Z,21.48
2019-06-26T01:49:56.528Z,21.47
2019-06-26T01:52:27.726Z,21.49
2019-06-26T01:54:59.036Z,21.51
2019-06-26T01:57:30.325Z,21.45
2019-06-26T02:00:01.656Z,21.50
2019-06-26T02:02:32.960Z,21.51
2019-06-26T02:05:05.910Z,21.51
2019-06-26T02:07:37.093Z,21.42
2019-06-26T02:10:09.022Z,21.38
2019-06-26T02:12:40.333Z,21.37
2019-06-26T02:15:11.662Z,21.22
2019-06-26T02:17:42.974Z,21.26
2019-06-26T02:20:14.526Z,21.31
2019-06-26T02:22:48.705Z,21.28
2019-06-26T02:25:18.869Z,21.30
2019-06-26T02:27:50.065Z,21.30
2019-06-26T02:30:21.704Z,21.31
2019-06-26T02:32:52.942Z,21.27
2019-06-26T02:35:24.280Z,21.30
2019-06-26T02:37:55.560Z,21.22
2019-06-26T02:40:26.773Z,21.26
2019-06-26T02:42:58.152Z,21.35
2019-06-26T02:45:29.409Z,21.42
2019-06-26T02:48:00.676Z,21.39
2019-06-26T02:50:31.968Z,21.41
2019-06-26T02:53:03.237Z,21.45
2019-06-26T02:55:34.629Z,21.43
2019-06-26T02:58:05.909Z,21.39
2019-06-26T03:00:37.233Z,21.40
2019-06-26T03:03:08.415Z,21.41
2019-06-26T03:05:39.652Z,21.23
2019-06-26T03:08:10.848Z,21.38
2019-06-26T03:10:42.098Z,21.40
2019-06-26T03:13:13.297Z,21.33
2019-06-26T03:15:44.552Z,21.37
2019-06-26T03:18:15.756Z,21.34
2019-06-26T03:20:50.242Z,21.31
2019-06-26T03:23:21.423Z,21.26
2019-06-26T03:25:58.720Z,21.28
2019-06-26T03:28:30.009Z,21.14
2019-06-26T03:31:01.200Z,21.32
2019-06-26T03:33:32.413Z,21.35
2019-06-26T03:36:03.613Z,21.34
2019-06-26T03:38:34.845Z,21.32
2019-06-26T03:41:06.055Z,21.34
2019-06-26T03:43:37.267Z,21.48
2019-06-26T03:46:08.505Z,21.45
2019-06-26T03:48:39.730Z,21.58
2019-06-26T03:51:13.933Z,21.62
2019-06-26T03:53:43.866Z,21.61
2019-06-26T03:56:15.103Z,21.59
2019-06-26T03:58:46.319Z,21.67
2019-06-26T04:01:17.520Z,21.79
2019-06-26T04:03:50.224Z,21.78
2019-06-26T04:06:21.409Z,21.82
2019-06-26T04:08:52.667Z,21.83
2019-06-26T04:11:23.867Z,21.83
2019-06-26T04:13:55.111Z,21.96
2019-06-26T04:16:26.285Z,21.99
2019-06-26T04:18:57.513Z,21.94
2019-06-26T04:21:28.814Z,22.16
2019-06-26T04:24:00.056Z,22.24
2019-06-26T04:26:31.213Z,22.37
2019-06-26T04:29:02.431Z,22.33
2019-06-26T04:31:33.643Z,22.45
2019-06-26T04:34:04.855Z,22.58
2019-06-26T04:36:36.090Z,22.69
2019-06-26T04:39:07.628Z,22.75
2019-06-26T04:41:38.853Z,22.75
2019-06-26T04:44:10.046Z,22.92
2019-06-26T04:46:41.195Z,23.04
2019-06-26T04:49:12.409Z,22.93
2019-06-26T04:51:43.500Z,23.06
2019-06-26T04:54:14.703Z,23.05
2019-06-26T04:56:46.419Z,23.23
2019-06-26T04:59:17.651Z,23.40
2019-06-26T05:01:48.823Z,23.59
2019-06-26T05:04:20.054Z,23.38
2019-06-26T05:06:51.230Z,23.53
2019-06-26T05:09:22.434Z,23.62
2019-06-26T05:11:53.616Z,23.63
2019-06-26T05:14:24.847Z,23.79
2019-06-26T05:16:56.043Z,23.86
2019-06-26T05:19:27.292Z,24.01
2019-06-26T05:21:58.296Z,24.17
2019-06-26T05:24:29.470Z,24.14
2019-06-26T05:27:00.646Z,24.33
2019-06-26T05:29:31.861Z,24.32
2019-06-26T05:32:03.052Z,24.27
2019-06-26T05:34:34.203Z,24.36
2019-06-26T05:37:05.491Z,24.53
2019-06-26T05:39:36.711Z,24.63
2019-06-26T05:42:07.884Z,24.50
2019-06-26T05:44:39.189Z,24.67
2019-06-26T05:47:10.408Z,24.66
2019-06-26T05:49:41.619Z,24.82
2019-06-26T05:52:16.387Z,24.92
2019-06-26T05:54:45.713Z,25.09
2019-06-26T05:57:16.973Z,25.27
2019-06-26T05:59:48.222Z,25.39
2019-06-26T06:02:19.750Z,25.43
2019-06-26T06:04:51.412Z,25.29
2019-06-26T06:07:22.707Z,25.26
2019-06-26T06:09:53.940Z,25.31
2019-06-26T06:12:25.162Z,25.12
2019-06-26T06:14:56.384Z,25.33
2019-06-26T06:17:27.604Z,25.30
2019-06-26T06:19:58.835Z,25.64
2019-06-26T06:22:30.139Z,25.91
2019-06-26T06:25:01.752Z,25.76
2019-06-26T06:27:34.781Z,26.00
2019-06-26T06:30:06.838Z,26.09
2019-06-26T06:32:38.150Z,26.11
2019-06-26T06:35:09.685Z,26.14
2019-06-26T06:37:40.841Z,26.28
2019-06-26T06:40:12.170Z,26.46
2019-06-26T06:42:43.365Z,26.65
2019-06-26T06:45:15.089Z,26.58
2019-06-26T06:47:46.271Z,26.77
2019-06-26T06:50:17.634Z,26.76
2019-06-26T06:52:50.966Z,26.73
2019-06-26T06:55:22.470Z,26.92
2019-06-26T06:57:53.736Z,27.07
2019-06-26T07:00:25.662Z,27.14
2019-06-26T07:02:57.027Z,26.87
2019-06-26T07:05:31.249Z,26.86
2019-06-26T07:08:02.433Z,26.99
2019-06-26T07:10:33.643Z,27.01
2019-06-26T07:13:04.845Z,27.35
2019-06-26T07:15:36.190Z,27.61
2019-06-26T07:18:07.329Z,27.60
2019-06-26T07:20:38.583Z,27.77
2019-06-26T07:23:09.788Z,27.74
2019-06-26T07:25:41.488Z,27.68
2019-06-26T07:28:12.818Z,27.94
2019-06-26T07:30:45.143Z,28.15
2019-06-26T07:33:16.433Z,28.12
2019-06-26T07:35:47.668Z,28.07
2019-06-26T07:38:18.842Z,28.05
2019-06-26T07:40:50.089Z,28.25
2019-06-26T07:43:21.394Z,28.01
2019-06-26T07:45:52.650Z,28.17
2019-06-26T07:48:23.826Z,28.05
2019-06-26T07:50:55.031Z,28.21
2019-06-26T07:53:26.353Z,28.37
2019-06-26T07:55:57.576Z,28.36
2019-06-26T07:58:31.774Z,28.27
2019-06-26T08:01:09.021Z,28.22
2019-06-26T08:03:41.028Z,28.25
2019-06-26T08:06:12.469Z,28.11
2019-06-26T08:08:43.850Z,28.60
2019-06-26T08:11:15.116Z,28.53
2019-06-26T08:13:46.368Z,28.30
2019-06-26T08:16:19.859Z,28.57
2019-06-26T08:18:51.391Z,28.76
2019-06-26T08:21:22.691Z,28.50
2019-06-26T08:23:53.880Z,28.49
2019-06-26T08:26:42.641Z,28.81
2019-06-26T08:29:35.301Z,28.81
2019-06-26T08:32:08.179Z,28.72
2019-06-26T08:34:40.535Z,28.68
2019-06-26T08:37:11.785Z,28.97
2019-06-26T08:39:45.273Z,29.22
2019-06-26T08:42:16.323Z,29.28
2019-06-26T08:44:48.955Z,29.27
2019-06-26T08:47:21.730Z,29.31
2019-06-26T08:49:53.050Z,29.41
2019-06-26T08:52:24.532Z,29.31
2019-06-26T08:54:57.033Z,29.47
2019-06-26T08:57:28.833Z,29.42
2019-06-26T09:00:02.311Z,29.58
2019-06-26T09:02:34.693Z,29.58
2019-06-26T09:05:08.168Z,29.48
2019-06-26T09:07:40.762Z,29.89
2019-06-26T09:10:12.684Z,30.07
2019-06-26T09:12:44.070Z,30.21
2019-06-26T09:15:16.032Z,30.01
2019-06-26T09:17:50.433Z,29.99
2019-06-26T09:20:34.177Z,30.08
2019-06-26T09:23:07.310Z,30.02
2019-06-26T09:25:41.681Z,30.48
2019-06-26T09:28:13.340Z,30.61
2019-06-26T09:30:47.390Z,30.72
2019-06-26T09:33:21.799Z,30.56
2019-06-26T09:35:52.628Z,30.98
2019-06-26T09:38:23.860Z,30.88
2019-06-26T09:40:54.966Z,30.94
2019-06-26T09:43:26.254Z,30.48
2019-06-26T09:46:00.398Z,30.81
2019-06-26T09:48:32.861Z,30.71
2019-06-26T09:51:04.070Z,30.80
2019-06-26T09:53:46.734Z,30.92
2019-06-26T09:56:09.524Z,30.57
2019-06-26T09:58:40.878Z,30.93
2019-06-26T10:01:15.796Z,31.05
2019-06-26T10:03:49.440Z,30.80
2019-06-26T10:06:21.119Z,31.20
2019-06-26T10:08:54.328Z,31.21
2019-06-26T10:11:25.566Z,31.20
2019-06-26T10:13:56.815Z,30.95
2019-06-26T10:16:28.145Z,31.30
2019-06-26T10:19:09.550Z,31.14
2019-06-26T10:21:32.480Z,30.93
2019-06-26T10:24:03.974Z,30.90
2019-06-26T10:26:35.555Z,30.94
2019-06-26T10:29:06.773Z,31.21
2019-06-26T10:31:38.006Z,31.28
2019-06-26T10:34:10.323Z,31.44
2019-06-26T10:36:41.834Z,31.29
2019-06-26T10:39:13.049Z,31.21
2019-06-26T10:41:44.319Z,31.65
2019-06-26T10:44:15.635Z,31.69
2019-06-26T10:46:46.896Z,31.82
2019-06-26T10:49:26.892Z,31.88
2019-06-26T10:51:51.389Z,31.92
2019-06-26T10:54:22.701Z,31.75
2019-06-26T10:56:53.927Z,31.78
2019-06-26T10:59:25.161Z,31.92
2019-06-26T11:01:56.669Z,31.64
2019-06-26T11:04:28.061Z,31.92
2019-06-26T11:06:59.427Z,31.92
2019-06-26T11:09:30.768Z,31.71
2019-06-26T11:12:02.494Z,32.39
2019-06-26T11:14:33.855Z,31.89
2019-06-26T11:17:05.969Z,32.30
2019-06-26T11:19:43.659Z,32.43
2019-06-26T11:22:10.896Z,32.32
2019-06-26T11:24:42.369Z,32.45
2019-06-26T11:27:13.687Z,32.47
2019-06-26T11:30:08.251Z,32.45
2019-06-26T11:32:42.193Z,32.64
2019-06-26T11:35:15.617Z,32.71
2019-06-26T11:37:47.864Z,32.53
2019-06-26T11:40:19.585Z,32.79
2019-06-26T11:42:50.805Z,32.94
2019-06-26T11:45:23.549Z,33.05
2019-06-26T11:47:56.358Z,32.86
2019-06-26T11:50:29.934Z,32.98
2019-06-26T11:53:01.118Z,33.17
2019-06-26T11:55:32.289Z,33.01
2019-06-26T11:58:04.657Z,32.63
2019-06-26T12:00:35.883Z,32.51
2019-06-26T12:03:07.294Z,32.47
2019-06-26T12:06:07.623Z,32.40
2019-06-26T12:08:28.025Z,32.52
2019-06-26T12:11:15.663Z,32.33
2019-06-26T12:14:03.557Z,32.16
2019-06-26T12:16:36.318Z,32.24
2019-06-26T12:19:19.739Z,32.33
2019-06-26T12:22:05.462Z,32.26
2019-06-26T12:24:39.475Z,32.60
2019-06-26T12:27:27.037Z,32.72
2019-06-26T12:30:16.056Z,32.74
2019-06-26T12:33:01.554Z,32.58
2019-06-26T12:35:20.349Z,32.56
2019-06-26T12:37:54.071Z,32.40
2019-06-26T12:40:30.953Z,32.19
2019-06-26T12:43:00.194Z,32.12
2019-06-26T12:45:32.114Z,31.88
2019-06-26T12:48:05.040Z,31.73
2019-06-26T12:50:52.956Z,31.41
2019-06-26T12:53:40.555Z,30.97
2019-06-26T12:56:12.052Z,31.04
2019-06-26T12:58:43.356Z,31.45
2019-06-26T13:01:32.374Z,32.07
2019-06-26T13:04:03.813Z,32.01
2019-06-26T13:06:35.669Z,31.62
2019-06-26T13:09:08.396Z,31.42
2019-06-26T13:11:39.838Z,31.60
2019-06-26T13:14:11.153Z,31.47
2019-06-26T13:16:44.588Z,31.30
2019-06-26T13:19:16.462Z,31.23
2019-06-26T13:21:47.927Z,31.07
2019-06-26T13:24:19.349Z,31.05
2019-06-26T13:26:54.268Z,31.33
2019-06-26T13:29:23.706Z,31.35
2019-06-26T13:31:54.983Z,31.19
2019-06-26T13:34:26.171Z,30.70
2019-06-26T13:36:57.445Z,30.71
2019-06-26T13:39:28.645Z,30.80
2019-06-26T13:41:59.916Z,30.95
2019-06-26T13:44:31.186Z,31.15
2019-06-26T13:47:02.533Z,30.73
2019-06-26T13:49:33.734Z,30.63
2019-06-26T13:52:04.980Z,30.69
2019-06-26T13:54:36.290Z,30.71
2019-06-26T13:57:07.620Z,30.42
2019-06-26T13:59:38.863Z,30.21
2019-06-26T14:02:11.220Z,30.31
2019-06-26T14:04:45.244Z,30.50
2019-06-26T14:07:16.455Z,30.24
2019-06-26T14:09:47.675Z,30.20
2019-06-26T14:12:19.409Z,29.98
2019-06-26T14:14:57.660Z,29.91
2019-06-26T14:17:28.050Z,29.76
2019-06-26T14:19:59.221Z,29.79
2019-06-26T14:22:30.614Z,29.61
2019-06-26T14:25:03.694Z,29.85
2019-06-26T14:27:36.059Z,29.80
2019-06-26T14:30:08.097Z,29.73
2019-06-26T14:32:39.463Z,29.54
2019-06-26T14:35:10.879Z,29.60
2019-06-26T14:37:43.001Z,29.43
2019-06-26T14:40:16.067Z,29.22
2019-06-26T14:42:52.781Z,29.13
2019-06-26T14:45:26.715Z,29.04
2019-06-26T14:48:06.464Z,29.02
2019-06-26T14:50:41.728Z,28.87
2019-06-26T14:53:12.967Z,28.83
2019-06-26T14:55:44.168Z,28.87
2019-06-26T14:58:15.394Z,28.75
2019-06-26T15:00:52.109Z,28.62
2019-06-26T15:03:23.476Z,28.67
2019-06-26T15:05:54.790Z,28.65
2019-06-26T15:08:26.083Z,28.52
2019-06-26T15:10:58.974Z,28.52
2019-06-26T15:13:30.181Z,28.50
2019-06-26T15:16:01.550Z,28.40
2019-06-26T15:18:32.776Z,28.45
2019-06-26T15:21:03.970Z,28.49
2019-06-26T15:23:35.359Z,28.47
2019-06-26T15:26:06.566Z,28.54
2019-06-26T15:28:37.864Z,28.58
2019-06-26T15:31:09.070Z,28.60
2019-06-26T15:33:40.301Z,28.45
2019-06-26T15:36:11.653Z,28.40
2019-06-26T15:38:42.903Z,28.36
2019-06-26T15:41:14.095Z,28.30
2019-06-26T15:43:45.337Z,28.28
2019-06-26T15:46:16.525Z,28.44
2019-06-26T15:48:50.286Z,28.31
2019-06-26T15:51:20.608Z,28.32
2019-06-26T15:53:51.766Z,28.37
2019-06-26T15:56:22.945Z,28.30
2019-06-26T15:58:54.793Z,28.37
2019-06-26T16:01:25.968Z,28.28
2019-06-26T16:03:57.309Z,28.25
2019-06-26T16:06:28.606Z,28.21
2019-06-26T16:08:59.800Z,28.15
2019-06-26T16:11:31.035Z,28.07
2019-06-26T16:14:02.214Z,28.07
2019-06-26T16:16:34.848Z,28.14
2019-06-26T16:19:07.628Z,28.04
2019-06-26T16:21:38.965Z,27.99
2019-06-26T16:24:11.586Z,27.95
2019-06-26T16:26:42.796Z,27.96
2019-06-26T16:29:13.994Z,27.94
2019-06-26T16:31:45.315Z,27.85
2019-06-26T16:34:16.537Z,27.73
2019-06-26T16:36:47.943Z,27.83
2019-06-26T16:39:19.225Z,27.64
2019-06-26T16:41:50.466Z,27.65
2019-06-26T16:44:22.359Z,27.61
2019-06-26T16:46:53.617Z,27.60
2019-06-26T16:49:24.815Z,27.51
2019-06-26T16:51:56.045Z,27.49
2019-06-26T16:54:27.237Z,27.30
2019-06-26T16:56:58.487Z,27.38
2019-06-26T16:59:29.782Z,27.38
2019-06-26T17:02:00.998Z,27.27
2019-06-26T17:04:32.176Z,27.17
2019-06-26T17:07:03.477Z,27.22
2019-06-26T17:09:34.739Z,27.26
2019-06-26T17:12:05.976Z,27.21
2019-06-26T17:14:37.196Z,27.10
2019-06-26T17:17:09.991Z,27.06
2019-06-26T17:19:41.204Z,27.11
2019-06-26T17:22:12.439Z,27.00
2019-06-26T17:24:43.606Z,27.02
2019-06-26T17:27:14.939Z,26.90
2019-06-26T17:29:46.117Z,26.89
2019-06-26T17:32:17.366Z,26.69
2019-06-26T17:34:48.567Z,26.67
2019-06-26T17:37:19.889Z,26.62
2019-06-26T17:39:52.654Z,26.64
2019-06-26T17:42:23.911Z,26.62
2019-06-26T17:44:55.089Z,26.55
2019-06-26T17:47:26.327Z,26.53
2019-06-26T17:49:57.524Z,26.34
2019-06-26T17:52:28.733Z,26.48
2019-06-26T17:55:02.998Z,26.46
2019-06-26T17:57:34.225Z,26.17
2019-06-26T18:00:10.674Z,26.17
2019-06-26T18:02:41.886Z,26.17
2019-06-26T18:05:13.659Z,26.12
2019-06-26T18:07:45.045Z,26.06
2019-06-26T18:10:16.613Z,25.97
2019-06-26T18:12:47.868Z,25.83
2019-06-26T18:15:19.058Z,25.76
2019-06-26T18:17:50.274Z,25.72
2019-06-26T18:20:21.455Z,25.56
2019-06-26T18:23:05.946Z,25.44
2019-06-26T18:25:25.661Z,25.38
2019-06-26T18:27:56.874Z,25.35
2019-06-26T18:30:28.082Z,25.24
2019-06-26T18:32:59.328Z,25.16
2019-06-26T18:35:31.413Z,25.05
2019-06-26T18:38:02.649Z,24.92
2019-06-26T18:40:33.831Z,24.89
2019-06-26T18:43:05.263Z,24.93
2019-06-26T18:45:36.450Z,24.80
2019-06-26T18:48:07.702Z,24.62
2019-06-26T18:50:38.895Z,24.64
2019-06-26T18:53:10.111Z,24.58
2019-06-26T18:55:41.297Z,24.45
2019-06-26T18:58:12.570Z,24.51
2019-06-26T19:00:43.866Z,24.49
2019-06-26T19:03:15.116Z,24.35
2019-06-26T19:05:46.312Z,24.21
2019-06-26T19:08:17.874Z,24.20
2019-06-26T19:10:49.091Z,24.14
2019-06-26T19:13:20.699Z,24.09
2019-06-26T19:15:52.004Z,24.09
2019-06-26T19:18:23.256Z,23.98
2019-06-26T19:20:54.433Z,24.00
2019-06-26T19:23:25.686Z,23.98
2019-06-26T19:25:56.892Z,23.78
2019-06-26T19:28:28.181Z,23.74
2019-06-26T19:30:59.407Z,23.72
2019-06-26T19:33:30.608Z,23.60
2019-06-26T19:36:02.057Z,23.50
2019-06-26T19:38:33.312Z,23.31
2019-06-26T19:41:08.340Z,23.18
2019-06-26T19:43:37.772Z,23.15
2019-06-26T19:46:08.968Z,23.25
2019-06-26T19:48:40.201Z,23.28
2019-06-26T19:51:11.408Z,23.13
2019-06-26T19:53:42.777Z,23.09
2019-06-26T19:56:13.972Z,22.93
2019-06-26T19:58:45.198Z,22.86
2019-06-26T20:01:17.099Z,22.64
2019-06-26T20:03:48.356Z,22.51
2019-06-26T20:06:19.439Z,22.62
2019-06-26T20:08:56.103Z,22.45
2019-06-26T20:11:23.570Z,22.43
2019-06-26T20:13:54.761Z,22.38
2019-06-26T20:16:25.969Z,22.32
2019-06-26T20:18:57.196Z,22.18
2019-06-26T20:21:28.418Z,22.00
2019-06-26T20:23:59.666Z,21.88
2019-06-26T20:26:30.803Z,21.97
2019-06-26T20:29:01.935Z,22.01
2019-06-26T20:31:33.215Z,22.00
2019-06-26T20:34:04.532Z,21.84
2019-06-26T20:36:35.711Z,21.76
2019-06-26T20:39:06.862Z,21.68
2019-06-26T20:41:38.050Z,21.69
2019-06-26T20:44:09.281Z,21.65
2019-06-26T20:46:40.487Z,21.66
2019-06-26T20:49:11.733Z,21.65
2019-06-26T20:51:42.909Z,21.60
2019-06-26T20:54:14.138Z,21.46
2019-06-26T20:56:45.349Z,21.35
2019-06-26T20:59:16.610Z,21.28
2019-06-26T21:01:47.808Z,21.29
2019-06-26T21:04:19.053Z,21.22
2019-06-26T21:06:50.227Z,21.15
2019-06-26T21:09:21.554Z,21.05
2019-06-26T21:11:52.769Z,21.01
2019-06-26T21:14:24.008Z,21.04
2019-06-26T21:16:55.207Z,20.88
2019-06-26T21:19:26.454Z,20.80
2019-06-26T21:21:57.662Z,20.96
2019-06-26T21:24:28.890Z,21.01
2019-06-26T21:27:00.088Z,21.11
2019-06-26T21:29:31.351Z,21.01
2019-06-26T21:32:02.533Z,20.91
2019-06-26T21:34:33.775Z,20.76
2019-06-26T21:37:04.952Z,20.74
2019-06-26T21:39:36.208Z,20.70
2019-06-26T21:42:07.413Z,20.53
2019-06-26T21:44:38.631Z,20.42
2019-06-26T21:47:09.851Z,20.30
2019-06-26T21:49:41.194Z,20.32
2019-06-26T21:52:12.431Z,20.25
2019-06-26T21:54:43.679Z,20.26
2019-06-26T21:57:14.893Z,20.18
2019-06-26T21:59:46.628Z,20.22
2019-06-26T22:02:17.827Z,20.25
2019-06-26T22:04:49.079Z,20.17
2019-06-26T22:07:20.372Z,20.11
2019-06-26T22:09:51.693Z,20.19
2019-06-26T22:12:22.889Z,20.17
2019-06-26T22:14:54.193Z,20.14
2019-06-26T22:17:25.356Z,20.04
2019-06-26T22:19:56.591Z,20.01
2019-06-26T22:22:27.748Z,20.05
2019-06-26T22:24:59.010Z,20.08
2019-06-26T22:27:30.264Z,20.02
2019-06-26T22:30:01.525Z,20.02
2019-06-26T22:32:32.767Z,20.02
2019-06-26T22:35:05.893Z,19.95
2019-06-26T22:37:37.106Z,19.86
2019-06-26T22:40:08.737Z,19.79
2019-06-26T22:42:39.905Z,19.95
2019-06-26T22:45:11.350Z,19.90
2019-06-26T22:47:42.550Z,19.74
2019-06-26T22:50:13.912Z,19.76
2019-06-26T22:52:45.112Z,19.78
2019-06-26T22:55:16.354Z,19.88
2019-06-26T22:57:47.559Z,19.88
2019-06-26T23:00:20.119Z,19.94
2019-06-26T23:02:51.294Z,19.85
2019-06-26T23:05:22.529Z,19.76
2019-06-26T23:07:53.829Z,19.85
2019-06-26T23:10:25.220Z,19.73
2019-06-26T23:12:56.398Z,19.66
2019-06-26T23:15:27.650Z,19.63
2019-06-26T23:17:58.859Z,19.62
2019-06-26T23:20:30.116Z,19.43
2019-06-26T23:23:01.448Z,19.42
2019-06-26T23:25:32.697Z,19.46
2019-06-26T23:28:03.868Z,19.48
2019-06-26T23:33:41.424Z,19.48
2019-06-26T23:36:12.832Z,19.50
2019-06-26T23:38:44.343Z,19.51
2019-06-26T23:41:20.034Z,19.40
2019-06-26T23:43:51.450Z,19.34
2019-06-26T23:46:22.808Z,19.22
2019-06-26T23:48:54.009Z,19.10
2019-06-26T23:51:26.975Z,18.96
2019-06-26T23:54:02.812Z,18.88
2019-06-26T23:56:42.819Z,18.94
2019-06-26T23:59:31.490Z,19.03
